GSPO2: Great Salt Plains Lake

Data processed at Sat Mar 10 2018 23:36


All information presented herein is the property of the government of the United States of America and may be revised or deleted at any time without prior notice.
Dissemination of this information without the expressed written consent of the Public Affairs Office, Tulsa District U.S. Army Corps of Engineers is strictly prohibited.
These data are gathered electronically and, as presented, have not undergone any form of quality control. These data are not guaranteed to be valid or correct.
Go to home page.
Go to station list.

Upstream stations:

Downstream station:
Previous Day
Next Day
Current Day
    
SHEF ID:       GSPO2     Great Salt Plains Lake
STATION TYPE:  RESERVOIR
Normal Pool:  Bottom =  1110.00, Top =  1125.00

               PRECIP  RIV-FLOW ELEVATION   STORAGE    INFLOW   RELEASE  AIR-TEMP  WIND-DIRWIND-SPEED REL-HUMID SOLAR-RAD   VOLTAGE  BAT-LOAD
                   in       cfs        ft     ac-ft       cfs       cfs         F       deg       mph         %      W/m2      volt      volt
              Ccp-Rev  Regi-Rev   Ccp-Rev   Ccp-Rev  Regi-Rev  Regi-Rev   Ccp-Rev   Ccp-Rev   Ccp-Rev   Ccp-Rev   Ccp-Rev   Ccp-Rev   Ccp-Rev
(US/Central)
03/08 00:00      0.00      ----   1125.13     27762         5        68     41.97    176.30      6.10     35.98      0.00     13.58      ----
03/08 01:00      0.00      ----   1125.09     27345         2        42     36.61     70.30      1.40     48.58      0.00     13.58      ----
03/08 02:00      0.00      ----   1125.13     27762         2        42     34.59    123.50      0.30     53.44      0.00     13.58      ----
03/08 03:00      0.00      ----   1125.09     27345         2        42     32.34     61.50      2.00     57.36      0.00     13.58      ----
03/08 04:00      0.00      ----   1125.07     27137         1        28     32.16     81.60      4.50     48.96      0.00     13.57      ----
03/08 05:00      0.00      ----   1125.01     26513         0        14     30.74     80.50      4.90     51.12      0.00     13.57      ----
03/08 06:00      0.00      ----   1124.99     26332         1         2     29.03     78.20      4.80     54.56      0.00     13.57      ----
03/08 07:00      0.00      ----   1125.05     26929         3         9     27.82     80.40      4.80     57.44      0.00     13.56      ----
03/08 08:00      0.00      ----   1125.06     27033         4        35     27.99     76.30      4.10     58.79     69.30     13.56      ----
03/08 09:00      0.00      ----   1124.99     26332         4        26     33.87     88.60      5.10     45.84    275.70     13.57      ----
03/08 10:00      0.00      ----   1125.02     26617         4         4     39.16     97.30      4.90     37.63    438.40     13.56      ----
03/08 11:00      0.00      ----   1125.06     27033       316        14     43.61    105.90      5.40     34.92    643.00     13.57      ----
03/08 12:00      0.00      ----   1125.05     26929       317        19     49.82    106.20      5.10     29.72    880.70     13.57      ----
03/08 13:00      0.00      ----   1125.15     27970       317        40     55.96    138.70      5.80     26.34    915.90     13.57      ----
03/08 14:00      0.00      ----   1125.13     27762       318        57     59.83    157.90      7.50     24.52    882.60     13.58      ----
03/08 15:00      0.00      ----   1125.15     27970       319        57     62.78    165.40      9.00     24.03    774.80     13.57      ----
03/08 16:00      0.00      ----   1125.11     27554         6        52     64.94    156.90      9.90     22.36    619.30     13.58      ----
03/08 17:00      0.00      ----   1125.13     27762         4        46     66.67    155.90      9.60     21.42    402.20     13.57      ----
03/08 18:00      0.00      ----   1125.18     28282         3        65     66.45    159.20      7.80     22.26    174.80     13.59      ----
03/08 19:00      0.00      ----   1125.15     27970         1        65     62.28    173.20      6.00     21.93      9.10     13.59      ----
03/08 20:00      0.00      ----   1125.12     27658         0        49     57.20    173.40      7.10     29.88      0.00     13.57      ----
03/08 21:00      0.00      ----   1125.08     27241         0        37     54.45    125.70      3.00     35.58      0.00     13.59      ----
03/08 22:00      0.00      ----   1125.13     27762         0        40     53.78    146.20      4.30     37.58      0.00     13.59      ----
03/08 23:00      0.00      ----   1125.09     27345         0        42     53.35    140.40      4.30     39.01      0.00     13.59      ----